Time;durP1;ratioP1;P1;durP2;ratioP2;P2;SDS_P1;SDS_P2;PMS_P1;PMS_P2;Temp;Humidity;BMP_temperature;BMP_pressure;BME280_temperature;BME280_humidity;BME280_pressure;Samples;Min_cycle;Max_cycle;Signal;HPM_P1;HPM_P2
2022/04/10 00:00:40;;;;;;;8.20;4.63;;;;;;;;;;5051006;28;20581;-75
2022/04/10 00:03:06;;;;;;;10.35;5.13;;;;;;;;;;5052453;28;20037;-75
2022/04/10 00:05:33;;;;;;;9.07;5.07;;;;;;;;;;5050011;28;20033;-76
2022/04/10 00:07:59;;;;;;;10.98;4.35;;;;;;;;;;5052245;28;20033;-75
2022/04/10 00:10:25;;;;;;;8.20;4.22;;;;;;;;;;5045165;28;20029;-73
2022/04/10 00:12:51;;;;;;;5.65;3.30;;;;;;;;;;5046091;28;20071;-74
2022/04/10 00:15:17;;;;;;;6.45;3.80;;;;;;;;;;5046737;28;20079;-74
2022/04/10 00:17:43;;;;;;;5.55;3.35;;;;;;;;;;5049618;28;20021;-74
2022/04/10 00:20:11;;;;;;;5.03;3.22;;;;;;;;;;5045122;28;20026;-75
2022/04/10 00:22:44;;;;;;;6.07;2.97;;;;;;;;;;5048424;28;20019;-74
2022/04/10 00:25:14;;;;;;;4.78;2.88;;;;;;;;;;5046629;28;20478;-74
2022/04/10 00:27:41;;;;;;;6.97;2.90;;;;;;;;;;5048199;28;20087;-75
2022/04/10 00:30:08;;;;;;;2.97;2.22;;;;;;;;;;5049355;28;20417;-76
2022/04/10 00:32:34;;;;;;;2.88;2.20;;;;;;;;;;5049004;28;20033;-75
2022/04/10 00:35:00;;;;;;;4.53;2.53;;;;;;;;;;5050166;28;20028;-75
2022/04/10 00:37:27;;;;;;;4.78;2.38;;;;;;;;;;5050956;28;20039;-75
2022/04/10 00:39:53;;;;;;;3.45;2.55;;;;;;;;;;5044062;28;20352;-76
2022/04/10 00:42:20;;;;;;;2.35;2.10;;;;;;;;;;5048097;28;20028;-75
2022/04/10 00:44:47;;;;;;;3.90;1.92;;;;;;;;;;5047395;28;20029;-75
2022/04/10 00:47:13;;;;;;;4.15;2.50;;;;;;;;;;5048366;28;20025;-76
2022/04/10 00:49:39;;;;;;;3.22;2.42;;;;;;;;;;5045781;28;20560;-75
2022/04/10 00:52:09;;;;;;;4.53;2.00;;;;;;;;;;5043885;28;20033;-76
2022/04/10 00:54:35;;;;;;;5.95;2.35;;;;;;;;;;5044054;28;20033;-76
2022/04/10 00:57:02;;;;;;;5.30;2.72;;;;;;;;;;5031161;28;20021;-76
2022/04/10 00:59:29;;;;;;;3.80;2.00;;;;;;;;;;5049377;28;20029;-76
2022/04/10 01:01:55;;;;;;;3.42;2.10;;;;;;;;;;5047160;28;20029;-75
2022/04/10 01:04:21;;;;;;;3.58;2.53;;;;;;;;;;5043546;28;20755;-75
2022/04/10 01:06:48;;;;;;;2.95;2.45;;;;;;;;;;5047400;28;20040;-76
2022/04/10 01:09:14;;;;;;;4.63;2.10;;;;;;;;;;5046770;28;20016;-76
2022/04/10 01:11:40;;;;;;;6.15;2.33;;;;;;;;;;5047514;28;20029;-75
2022/04/10 01:14:07;;;;;;;3.70;2.30;;;;;;;;;;5047278;28;20557;-75
2022/04/10 01:16:34;;;;;;;4.35;2.10;;;;;;;;;;5044601;28;20151;-75
2022/04/10 01:19:04;;;;;;;4.13;1.98;;;;;;;;;;5045689;28;20435;-74
2022/04/10 01:21:32;;;;;;;3.42;1.83;;;;;;;;;;5042828;28;20029;-75
2022/04/10 01:23:58;;;;;;;3.78;2.03;;;;;;;;;;5043792;28;20036;-75
2022/04/10 01:26:26;;;;;;;2.97;2.65;;;;;;;;;;5021074;28;20041;-76
2022/04/10 01:29:19;;;;;;;3.03;2.00;;;;;;;;;;5024023;28;20398;-75
2022/04/10 01:31:46;;;;;;;4.30;1.90;;;;;;;;;;5041092;28;20395;-74
2022/04/10 01:34:16;;;;;;;2.88;2.47;;;;;;;;;;5040254;28;20045;-75
2022/04/10 01:36:43;;;;;;;6.25;2.05;;;;;;;;;;5042485;28;20238;-76
2022/04/10 01:39:10;;;;;;;7.40;2.05;;;;;;;;;;5027531;28;20074;-75
2022/04/10 01:41:36;;;;;;;2.90;1.90;;;;;;;;;;5025056;28;20642;-75
2022/04/10 01:44:03;;;;;;;2.88;2.15;;;;;;;;;;5046425;28;20808;-76
2022/04/10 01:46:30;;;;;;;3.47;2.00;;;;;;;;;;5044590;28;21003;-76
2022/04/10 01:48:57;;;;;;;2.55;1.77;;;;;;;;;;5048132;28;20028;-75
2022/04/10 01:51:27;;;;;;;3.65;2.28;;;;;;;;;;5047261;28;20108;-75
2022/04/10 01:53:53;;;;;;;4.13;1.98;;;;;;;;;;5051939;28;20036;-75
2022/04/10 01:56:20;;;;;;;3.85;2.20;;;;;;;;;;5045312;28;20412;-74
2022/04/10 01:58:46;;;;;;;2.90;1.75;;;;;;;;;;5043983;28;20061;-75
2022/04/10 02:01:13;;;;;;;4.03;2.05;;;;;;;;;;5046795;28;21790;-75
2022/04/10 02:03:40;;;;;;;4.25;1.98;;;;;;;;;;5046803;28;20021;-75
2022/04/10 02:06:07;;;;;;;6.35;1.92;;;;;;;;;;5046406;28;20048;-76
2022/04/10 02:08:35;;;;;;;2.97;2.10;;;;;;;;;;5043581;28;20501;-75
2022/04/10 02:11:02;;;;;;;2.53;2.15;;;;;;;;;;5044299;28;20037;-76
2022/04/10 02:13:29;;;;;;;2.47;2.08;;;;;;;;;;5046492;28;20029;-75
2022/04/10 02:15:55;;;;;;;7.05;2.10;;;;;;;;;;5047117;28;20043;-74
2022/04/10 02:18:21;;;;;;;1.95;1.77;;;;;;;;;;5041767;28;20029;-74
2022/04/10 02:20:47;;;;;;;4.15;2.28;;;;;;;;;;5047842;28;20033;-76
2022/04/10 02:23:13;;;;;;;7.78;2.55;;;;;;;;;;5043258;28;20095;-75
2022/04/10 02:25:39;;;;;;;3.28;1.90;;;;;;;;;;5047820;28;20046;-74
2022/04/10 02:28:06;;;;;;;5.20;2.30;;;;;;;;;;5045506;28;20353;-75
2022/04/10 02:30:32;;;;;;;2.80;2.20;;;;;;;;;;5045034;28;20041;-75
2022/04/10 02:32:58;;;;;;;2.95;2.08;;;;;;;;;;5025474;28;20578;-74
2022/04/10 02:35:24;;;;;;;7.38;2.03;;;;;;;;;;5038326;28;20037;-74
2022/04/10 02:37:50;;;;;;;2.80;1.77;;;;;;;;;;5043830;28;20079;-75
2022/04/10 02:40:18;;;;;;;6.18;2.40;;;;;;;;;;5043292;28;20029;-75
2022/04/10 02:42:44;;;;;;;2.38;1.90;;;;;;;;;;5043777;28;20017;-73
2022/04/10 02:45:10;;;;;;;7.28;3.30;;;;;;;;;;5047372;28;20360;-75
2022/04/10 02:47:36;;;;;;;4.32;2.88;;;;;;;;;;5045258;28;20108;-75
2022/04/10 02:50:03;;;;;;;5.28;2.50;;;;;;;;;;5046121;28;20092;-74
2022/04/10 02:52:29;;;;;;;6.68;2.72;;;;;;;;;;5046947;28;20025;-75
2022/04/10 02:54:55;;;;;;;6.53;3.05;;;;;;;;;;5045757;28;20029;-74
2022/04/10 02:57:21;;;;;;;3.67;2.50;;;;;;;;;;5046661;28;20028;-75
2022/04/10 02:59:47;;;;;;;6.18;2.90;;;;;;;;;;5043539;28;20386;-75
2022/04/10 03:02:13;;;;;;;6.47;2.67;;;;;;;;;;5041522;28;20098;-75
2022/04/10 03:04:39;;;;;;;4.50;2.75;;;;;;;;;;5044698;28;20041;-75
2022/04/10 03:07:05;;;;;;;4.75;2.50;;;;;;;;;;5043982;28;20814;-75
2022/04/10 03:09:32;;;;;;;3.45;2.20;;;;;;;;;;5025802;28;20059;-74
2022/04/10 03:11:58;;;;;;;6.18;2.85;;;;;;;;;;5045881;28;20083;-75
2022/04/10 03:14:24;;;;;;;4.53;2.92;;;;;;;;;;5042817;28;20036;-75
2022/04/10 03:16:50;;;;;;;4.00;2.38;;;;;;;;;;5044903;28;20025;-75
2022/04/10 03:19:17;;;;;;;2.50;2.00;;;;;;;;;;5040413;28;20017;-75
2022/04/10 03:21:43;;;;;;;4.88;2.17;;;;;;;;;;5025941;28;20399;-76
2022/04/10 03:24:09;;;;;;;3.90;1.88;;;;;;;;;;5040313;28;20029;-75
2022/04/10 03:26:35;;;;;;;4.97;2.08;;;;;;;;;;5044872;28;20029;-75
2022/04/10 03:29:01;;;;;;;4.07;2.35;;;;;;;;;;5044229;28;20024;-75
2022/04/10 03:31:27;;;;;;;6.75;2.70;;;;;;;;;;5041680;28;20463;-76
2022/04/10 03:33:53;;;;;;;2.35;1.98;;;;;;;;;;5039636;28;20064;-75
2022/04/10 03:36:19;;;;;;;4.07;2.33;;;;;;;;;;5027085;28;20021;-74
2022/04/10 03:38:45;;;;;;;3.95;2.22;;;;;;;;;;5044598;28;20379;-75
2022/04/10 03:41:11;;;;;;;4.88;3.08;;;;;;;;;;5038780;28;20043;-75
2022/04/10 03:43:38;;;;;;;2.92;2.05;;;;;;;;;;5040309;28;20025;-75
2022/04/10 03:46:05;;;;;;;3.30;2.10;;;;;;;;;;5036814;28;20021;-75
2022/04/10 03:48:31;;;;;;;2.50;1.85;;;;;;;;;;5044181;28;20048;-74
2022/04/10 03:50:57;;;;;;;4.70;2.35;;;;;;;;;;5023163;28;20021;-74
2022/04/10 03:53:23;;;;;;;3.25;2.08;;;;;;;;;;5043659;28;20383;-75
2022/04/10 03:55:49;;;;;;;2.53;2.10;;;;;;;;;;5043962;28;20025;-74
2022/04/10 03:58:15;;;;;;;2.08;1.80;;;;;;;;;;5044137;28;20032;-74
2022/04/10 04:00:41;;;;;;;2.63;1.95;;;;;;;;;;5044091;28;20127;-74
2022/04/10 04:03:07;;;;;;;4.00;1.83;;;;;;;;;;5038600;28;20086;-73
2022/04/10 04:05:34;;;;;;;2.00;1.75;;;;;;;;;;5039723;28;20404;-74
2022/04/10 04:08:01;;;;;;;1.92;1.75;;;;;;;;;;5046577;28;20037;-75
2022/04/10 04:10:27;;;;;;;2.88;1.80;;;;;;;;;;5043143;28;20033;-74
2022/04/10 04:12:53;;;;;;;2.30;2.08;;;;;;;;;;5041229;28;20037;-74
2022/04/10 04:15:19;;;;;;;3.83;1.98;;;;;;;;;;5044603;28;20032;-74
2022/04/10 04:17:45;;;;;;;4.10;2.25;;;;;;;;;;5043796;28;20028;-74
2022/04/10 04:20:13;;;;;;;5.65;2.50;;;;;;;;;;5044718;28;20025;-73
2022/04/10 04:22:39;;;;;;;3.00;1.95;;;;;;;;;;5038617;28;20167;-74
2022/04/10 04:25:06;;;;;;;3.00;1.85;;;;;;;;;;5044544;28;20474;-74
2022/04/10 04:27:32;;;;;;;4.07;1.80;;;;;;;;;;5043690;28;20030;-75
2022/04/10 04:29:59;;;;;;;4.88;1.83;;;;;;;;;;5044606;28;20403;-75
2022/04/10 04:32:26;;;;;;;6.25;2.40;;;;;;;;;;5039276;28;20049;-75
2022/04/10 04:34:52;;;;;;;4.10;2.03;;;;;;;;;;5044349;28;20029;-74
2022/04/10 04:37:18;;;;;;;3.88;2.78;;;;;;;;;;5043766;28;20021;-74
2022/04/10 04:39:44;;;;;;;3.42;2.10;;;;;;;;;;5043899;28;20032;-74
2022/04/10 04:42:10;;;;;;;2.25;2.03;;;;;;;;;;5049801;28;20037;-74
2022/04/10 04:44:36;;;;;;;3.58;2.28;;;;;;;;;;5049074;28;20063;-73
2022/04/10 04:47:02;;;;;;;2.50;2.10;;;;;;;;;;5043030;28;20056;-74
2022/04/10 04:49:28;;;;;;;1.80;1.67;;;;;;;;;;5030032;28;20040;-73
2022/04/10 04:51:54;;;;;;;3.22;1.83;;;;;;;;;;5043934;28;20025;-74
2022/04/10 04:54:21;;;;;;;2.83;2.00;;;;;;;;;;5047099;28;20020;-75
2022/04/10 04:56:48;;;;;;;4.70;2.08;;;;;;;;;;5047763;28;20059;-74
2022/04/10 04:59:14;;;;;;;2.72;1.95;;;;;;;;;;5047693;28;20048;-74
2022/04/10 05:01:43;;;;;;;2.00;1.73;;;;;;;;;;5047528;28;20552;-75
2022/04/10 05:04:10;;;;;;;5.68;2.00;;;;;;;;;;5046893;28;20035;-74
2022/04/10 05:06:36;;;;;;;3.08;2.00;;;;;;;;;;5045862;28;20059;-74
2022/04/10 05:09:02;;;;;;;2.88;2.17;;;;;;;;;;5031129;28;20076;-74
2022/04/10 05:11:28;;;;;;;3.80;2.30;;;;;;;;;;5045683;28;20044;-73
2022/04/10 05:13:54;;;;;;;4.22;2.40;;;;;;;;;;5046969;28;20040;-74
2022/04/10 05:16:22;;;;;;;9.23;2.95;;;;;;;;;;5024811;28;20071;-74
2022/04/10 05:18:48;;;;;;;3.97;2.13;;;;;;;;;;5045729;28;20470;-74
2022/04/10 05:21:14;;;;;;;3.92;2.20;;;;;;;;;;5043439;28;20032;-74
2022/04/10 05:23:40;;;;;;;2.92;2.10;;;;;;;;;;5045102;28;20106;-73
2022/04/10 05:26:07;;;;;;;2.25;1.85;;;;;;;;;;5043567;28;20025;-74
2022/04/10 05:28:34;;;;;;;2.72;1.77;;;;;;;;;;5029307;28;20048;-74
2022/04/10 05:31:01;;;;;;;1.95;1.65;;;;;;;;;;5041898;28;20091;-75
2022/04/10 05:33:27;;;;;;;3.58;1.70;;;;;;;;;;5025664;28;20087;-75
2022/04/10 05:35:55;;;;;;;2.40;1.80;;;;;;;;;;5043333;28;20097;-74
2022/04/10 05:38:22;;;;;;;2.38;1.80;;;;;;;;;;5047590;28;20039;-74
2022/04/10 05:40:52;;;;;;;4.10;1.92;;;;;;;;;;5048436;28;20025;-74
2022/04/10 05:43:20;;;;;;;3.58;1.83;;;;;;;;;;5046724;28;20174;-74
2022/04/10 05:45:46;;;;;;;2.00;1.80;;;;;;;;;;5045058;28;20132;-75
2022/04/10 05:48:12;;;;;;;4.75;1.85;;;;;;;;;;5047703;28;20467;-74
2022/04/10 05:50:38;;;;;;;3.75;1.67;;;;;;;;;;5046567;28;20044;-74
2022/04/10 05:53:05;;;;;;;2.00;1.73;;;;;;;;;;5046297;28;20029;-74
2022/04/10 05:55:31;;;;;;;2.90;1.52;;;;;;;;;;5045911;28;20036;-74
2022/04/10 05:57:57;;;;;;;4.57;1.50;;;;;;;;;;5046292;28;20033;-74
2022/04/10 06:00:23;;;;;;;2.85;1.60;;;;;;;;;;5048046;28;20083;-75
2022/04/10 06:02:50;;;;;;;1.90;1.70;;;;;;;;;;5044361;28;20324;-74
2022/04/10 06:05:16;;;;;;;2.55;1.80;;;;;;;;;;5024611;28;20041;-74
2022/04/10 06:07:42;;;;;;;2.20;1.52;;;;;;;;;;5049958;28;20528;-75
2022/04/10 06:10:08;;;;;;;2.58;1.90;;;;;;;;;;5046558;28;20468;-76
2022/04/10 06:12:34;;;;;;;2.97;1.90;;;;;;;;;;5048322;28;20308;-74
2022/04/10 06:15:00;;;;;;;2.58;1.80;;;;;;;;;;5044798;28;20021;-74
2022/04/10 06:17:26;;;;;;;1.88;1.67;;;;;;;;;;5041858;28;20167;-74
2022/04/10 06:19:53;;;;;;;2.70;1.70;;;;;;;;;;5045949;28;20880;-74
2022/04/10 06:22:23;;;;;;;4.97;1.90;;;;;;;;;;5043921;28;20037;-74
2022/04/10 06:24:50;;;;;;;2.22;1.42;;;;;;;;;;5043615;28;20104;-74
2022/04/10 06:27:17;;;;;;;5.53;2.40;;;;;;;;;;5044938;28;20033;-74
2022/04/10 06:29:43;;;;;;;3.17;1.70;;;;;;;;;;5048553;28;20036;-74
2022/04/10 06:32:09;;;;;;;7.22;1.98;;;;;;;;;;5048460;28;20111;-74
2022/04/10 06:34:35;;;;;;;3.95;1.88;;;;;;;;;;5048792;28;20025;-73
2022/04/10 06:37:01;;;;;;;3.42;1.80;;;;;;;;;;5022220;28;20026;-74
2022/04/10 06:39:28;;;;;;;3.00;2.17;;;;;;;;;;5050047;28;20055;-76
2022/04/10 06:41:54;;;;;;;3.30;1.65;;;;;;;;;;5043523;28;20037;-74
2022/04/10 06:44:20;;;;;;;3.15;1.80;;;;;;;;;;5048561;28;20356;-75
2022/04/10 06:46:47;;;;;;;6.32;1.92;;;;;;;;;;5041548;28;20059;-75
2022/04/10 06:49:13;;;;;;;2.90;2.08;;;;;;;;;;5047276;28;20037;-75
2022/04/10 06:51:40;;;;;;;4.45;1.70;;;;;;;;;;5027657;28;20025;-75
2022/04/10 06:54:07;;;;;;;2.70;1.70;;;;;;;;;;5047360;28;20021;-75
2022/04/10 06:56:33;;;;;;;5.68;2.03;;;;;;;;;;5047139;28;20029;-74
2022/04/10 06:58:59;;;;;;;3.42;2.05;;;;;;;;;;5027933;28;20021;-74
2022/04/10 07:01:25;;;;;;;4.63;1.80;;;;;;;;;;5040972;28;20041;-74
2022/04/10 07:03:51;;;;;;;2.40;2.20;;;;;;;;;;5044292;28;20033;-75
2022/04/10 07:06:17;;;;;;;3.67;1.90;;;;;;;;;;5046596;28;20071;-74
2022/04/10 07:08:43;;;;;;;3.88;2.00;;;;;;;;;;5044599;28;20036;-74
2022/04/10 07:11:10;;;;;;;4.03;2.47;;;;;;;;;;5045683;28;20479;-75
2022/04/10 07:13:36;;;;;;;4.45;2.13;;;;;;;;;;5048504;28;20078;-74
2022/04/10 07:16:02;;;;;;;2.67;2.17;;;;;;;;;;5045597;28;20029;-74
2022/04/10 07:18:28;;;;;;;3.58;1.98;;;;;;;;;;5028886;28;20108;-74
2022/04/10 07:20:54;;;;;;;4.20;1.92;;;;;;;;;;5044969;28;20063;-74
2022/04/10 07:23:42;;;;;;;1.67;1.50;;;;;;;;;;5044545;28;20088;-74
2022/04/10 07:26:08;;;;;;;2.75;1.90;;;;;;;;;;5047021;28;20498;-74
2022/04/10 07:28:35;;;;;;;5.32;2.08;;;;;;;;;;5044042;28;20044;-73
2022/04/10 07:31:01;;;;;;;2.50;1.90;;;;;;;;;;5046380;28;20084;-73
2022/04/10 07:33:27;;;;;;;3.22;2.20;;;;;;;;;;5047833;28;20040;-75
2022/04/10 07:35:53;;;;;;;5.00;2.20;;;;;;;;;;5044268;28;20071;-74
2022/04/10 07:38:19;;;;;;;4.05;1.92;;;;;;;;;;5047180;28;20021;-73
2022/04/10 07:40:46;;;;;;;2.00;1.77;;;;;;;;;;5046055;28;20025;-74
2022/04/10 07:43:12;;;;;;;4.07;2.38;;;;;;;;;;5043714;28;20021;-74
2022/04/10 07:48:23;;;;;;;3.57;2.30;;;;;;;;;;5042893;28;20178;-75
2022/04/10 07:50:49;;;;;;;4.95;2.25;;;;;;;;;;5038332;28;20653;-74
2022/04/10 07:53:15;;;;;;;4.20;2.05;;;;;;;;;;5039747;28;20112;-74
2022/04/10 07:55:41;;;;;;;6.28;2.05;;;;;;;;;;5027140;28;20032;-74
2022/04/10 07:58:07;;;;;;;3.42;2.05;;;;;;;;;;5052902;28;20029;-74
2022/04/10 08:00:33;;;;;;;4.15;3.33;;;;;;;;;;5049578;28;20032;-74
2022/04/10 08:03:00;;;;;;;4.70;1.88;;;;;;;;;;5045242;28;20461;-75
2022/04/10 08:05:26;;;;;;;4.55;2.63;;;;;;;;;;5042265;28;20120;-74
2022/04/10 08:07:52;;;;;;;3.83;2.35;;;;;;;;;;5044818;28;20036;-74
2022/04/10 08:10:18;;;;;;;3.88;2.42;;;;;;;;;;5047742;28;20443;-75
2022/04/10 08:12:45;;;;;;;4.07;2.25;;;;;;;;;;5042759;28;20034;-75
2022/04/10 08:15:12;;;;;;;5.93;2.17;;;;;;;;;;5045897;28;20021;-75
2022/04/10 08:17:38;;;;;;;4.53;2.40;;;;;;;;;;5049936;28;20077;-73
2022/04/10 08:20:05;;;;;;;3.05;2.75;;;;;;;;;;5042998;28;20056;-74
2022/04/10 08:22:32;;;;;;;2.83;2.17;;;;;;;;;;5037378;28;20045;-74
2022/04/10 08:25:02;;;;;;;3.03;2.08;;;;;;;;;;5026442;28;20037;-74
2022/04/10 08:27:29;;;;;;;2.67;1.92;;;;;;;;;;5042221;28;20712;-74
2022/04/10 08:29:55;;;;;;;3.90;2.42;;;;;;;;;;5043437;28;20055;-74
2022/04/10 08:32:21;;;;;;;8.95;2.55;;;;;;;;;;5043934;28;20055;-74
2022/04/10 08:34:48;;;;;;;3.53;2.42;;;;;;;;;;5044924;28;20100;-74
2022/04/10 08:37:14;;;;;;;4.15;2.22;;;;;;;;;;5041979;28;20498;-73
2022/04/10 08:39:41;;;;;;;4.78;2.17;;;;;;;;;;5045576;28;20036;-74
2022/04/10 08:42:08;;;;;;;6.68;2.03;;;;;;;;;;5045306;28;20044;-74
2022/04/10 08:44:35;;;;;;;5.68;2.20;;;;;;;;;;5044661;28;20029;-75
2022/04/10 08:47:01;;;;;;;5.95;2.78;;;;;;;;;;5025163;28;20037;-75
2022/04/10 08:49:34;;;;;;;5.97;2.28;;;;;;;;;;5026122;28;20037;-75
2022/04/10 08:52:00;;;;;;;2.72;2.10;;;;;;;;;;5042460;28;20068;-74
2022/04/10 08:54:27;;;;;;;3.90;2.58;;;;;;;;;;5045739;28;20059;-73
2022/04/10 08:56:55;;;;;;;8.95;2.90;;;;;;;;;;5043174;28;20036;-73
2022/04/10 08:59:21;;;;;;;3.75;2.40;;;;;;;;;;5044151;28;20032;-73
2022/04/10 09:01:54;;;;;;;3.88;2.33;;;;;;;;;;5026707;28;20025;-74
2022/04/10 09:04:20;;;;;;;3.88;2.38;;;;;;;;;;5026266;28;20029;-73
2022/04/10 09:07:05;;;;;;;5.03;2.42;;;;;;;;;;5042964;28;20051;-73
2022/04/10 09:09:32;;;;;;;10.60;2.50;;;;;;;;;;5041736;28;20056;-73
2022/04/10 09:11:59;;;;;;;4.05;2.53;;;;;;;;;;5045064;28;20065;-74
2022/04/10 09:14:26;;;;;;;4.50;2.10;;;;;;;;;;5043712;28;20102;-74
2022/04/10 09:17:11;;;;;;;3.05;2.38;;;;;;;;;;5044162;28;20021;-74
2022/04/10 09:19:44;;;;;;;3.95;2.30;;;;;;;;;;5044832;28;20067;-73
2022/04/10 09:22:20;;;;;;;3.85;2.15;;;;;;;;;;5040786;28;20039;-75
2022/04/10 09:25:02;;;;;;;4.07;2.40;;;;;;;;;;5039959;28;20107;-73
2022/04/10 09:27:42;;;;;;;7.88;2.13;;;;;;;;;;5041983;28;20172;-74
2022/04/10 09:30:14;;;;;;;3.53;2.08;;;;;;;;;;5039443;28;20029;-75
2022/04/10 09:32:53;;;;;;;6.38;2.45;;;;;;;;;;5042392;28;20041;-74
2022/04/10 09:35:23;;;;;;;5.65;2.05;;;;;;;;;;5040345;28;20027;-75
2022/04/10 09:37:50;;;;;;;3.20;2.20;;;;;;;;;;5042767;28;20345;-74
2022/04/10 09:40:21;;;;;;;3.35;2.17;;;;;;;;;;5042073;28;20749;-74
2022/04/10 09:42:49;;;;;;;4.35;2.20;;;;;;;;;;5041131;28;20040;-73
2022/04/10 09:45:48;;;;;;;3.03;2.25;;;;;;;;;;5045672;28;20032;-73
2022/04/10 09:48:26;;;;;;;4.47;2.50;;;;;;;;;;4991418;28;20098;-74
2022/04/10 09:51:02;;;;;;;5.50;3.05;;;;;;;;;;5044772;28;20040;-73
2022/04/10 09:53:28;;;;;;;8.35;3.67;;;;;;;;;;5044753;28;20057;-74
2022/04/10 09:55:55;;;;;;;20.98;11.35;;;;;;;;;;5043827;28;20025;-74
2022/04/10 09:58:22;;;;;;;12.32;7.15;;;;;;;;;;5047914;28;20765;-74
2022/04/10 10:00:49;;;;;;;9.02;4.65;;;;;;;;;;5045309;28;20025;-75
2022/04/10 10:03:17;;;;;;;5.10;3.60;;;;;;;;;;5042817;28;20060;-74
2022/04/10 10:05:44;;;;;;;6.97;3.35;;;;;;;;;;5045304;28;20510;-73
2022/04/10 10:08:10;;;;;;;6.13;4.18;;;;;;;;;;5025123;28;20056;-74
2022/04/10 10:10:37;;;;;;;7.00;4.40;;;;;;;;;;5046547;28;20029;-74
2022/04/10 10:13:08;;;;;;;6.15;5.28;;;;;;;;;;5042879;28;20038;-74
2022/04/10 10:15:37;;;;;;;4.38;2.97;;;;;;;;;;5027931;28;20485;-73
2022/04/10 10:18:07;;;;;;;4.43;2.97;;;;;;;;;;5042498;28;20052;-74
2022/04/10 10:20:34;;;;;;;6.68;3.25;;;;;;;;;;5039380;28;20055;-73
2022/04/10 10:23:01;;;;;;;3.25;2.47;;;;;;;;;;5045852;28;20033;-74
2022/04/10 10:25:30;;;;;;;8.25;2.88;;;;;;;;;;5045569;28;20060;-74
2022/04/10 10:28:02;;;;;;;7.80;3.50;;;;;;;;;;5045154;28;20061;-74
2022/04/10 10:30:40;;;;;;;6.63;3.72;;;;;;;;;;5045305;28;20075;-74
2022/04/10 10:33:18;;;;;;;5.65;2.08;;;;;;;;;;5048596;28;20036;-75
2022/04/10 10:35:45;;;;;;;4.78;2.50;;;;;;;;;;5046851;28;20033;-74
2022/04/10 10:38:25;;;;;;;5.60;2.40;;;;;;;;;;5045145;28;20044;-75
2022/04/10 10:40:51;;;;;;;8.68;2.60;;;;;;;;;;5044314;28;20087;-75
2022/04/10 10:43:19;;;;;;;6.63;2.50;;;;;;;;;;5046431;28;20021;-73
2022/04/10 10:45:46;;;;;;;6.88;3.58;;;;;;;;;;5042860;28;20036;-73
2022/04/10 10:48:30;;;;;;;4.50;2.20;;;;;;;;;;5044927;28;20118;-75
2022/04/10 10:51:00;;;;;;;3.85;2.10;;;;;;;;;;5041454;28;20136;-75
2022/04/10 10:53:45;;;;;;;4.70;2.28;;;;;;;;;;5039439;28;20060;-74
2022/04/10 10:56:22;;;;;;;6.95;2.75;;;;;;;;;;5035388;28;20521;-75
2022/04/10 10:58:49;;;;;;;4.30;2.40;;;;;;;;;;5039287;28;20037;-74
2022/04/10 11:01:26;;;;;;;6.55;2.33;;;;;;;;;;5041392;28;20029;-74
2022/04/10 11:04:10;;;;;;;5.60;2.42;;;;;;;;;;5043694;28;20025;-73
2022/04/10 11:06:45;;;;;;;6.40;2.95;;;;;;;;;;5046812;28;20037;-73
2022/04/10 11:09:31;;;;;;;4.20;2.33;;;;;;;;;;5040673;28;20356;-75
2022/04/10 11:12:00;;;;;;;4.97;3.40;;;;;;;;;;5043874;28;20507;-75
2022/04/10 11:14:33;;;;;;;13.68;4.43;;;;;;;;;;5045019;28;20043;-74
2022/04/10 11:17:18;;;;;;;9.82;4.00;;;;;;;;;;5042247;28;20020;-75
2022/04/10 11:19:45;;;;;;;6.63;2.47;;;;;;;;;;5046639;28;20990;-76
2022/04/10 11:22:35;;;;;;;5.78;2.20;;;;;;;;;;5042554;28;20033;-76
2022/04/10 11:25:05;;;;;;;3.00;2.38;;;;;;;;;;5010265;28;20159;-76
2022/04/10 11:27:45;;;;;;;5.25;2.50;;;;;;;;;;5048684;28;20066;-76
2022/04/10 11:30:13;;;;;;;6.15;2.53;;;;;;;;;;5047679;28;20028;-75
2022/04/10 11:32:42;;;;;;;4.88;2.28;;;;;;;;;;5040552;28;20039;-76
2022/04/10 11:35:20;;;;;;;5.07;2.40;;;;;;;;;;5039588;28;20060;-76
2022/04/10 11:37:47;;;;;;;5.82;2.70;;;;;;;;;;5037587;28;20021;-74
2022/04/10 11:40:14;;;;;;;3.28;2.08;;;;;;;;;;5040094;28;20039;-76
2022/04/10 11:42:40;;;;;;;7.28;2.45;;;;;;;;;;5040858;28;20025;-74
2022/04/10 11:45:09;;;;;;;7.03;2.10;;;;;;;;;;5038137;28;20164;-75
2022/04/10 11:47:35;;;;;;;9.95;2.92;;;;;;;;;;5038611;28;20025;-77
2022/04/10 11:50:01;;;;;;;4.55;2.40;;;;;;;;;;5037552;28;20030;-76
2022/04/10 11:52:27;;;;;;;6.30;2.78;;;;;;;;;;5038819;28;20448;-75
2022/04/10 11:54:53;;;;;;;3.78;2.15;;;;;;;;;;5036395;28;20040;-73
2022/04/10 11:57:20;;;;;;;7.40;3.47;;;;;;;;;;5039072;28;20028;-76
2022/04/10 11:59:46;;;;;;;6.28;2.40;;;;;;;;;;5023049;28;20064;-74
2022/04/10 12:02:12;;;;;;;3.95;2.70;;;;;;;;;;5036933;28;20032;-76
2022/04/10 12:04:40;;;;;;;4.18;2.47;;;;;;;;;;5038710;28;20033;-75
2022/04/10 12:07:17;;;;;;;7.00;2.40;;;;;;;;;;5036088;28;20529;-73
2022/04/10 12:09:43;;;;;;;6.95;2.67;;;;;;;;;;5039350;28;20044;-71
2022/04/10 12:12:10;;;;;;;7.35;2.40;;;;;;;;;;5022498;28;20044;-72
2022/04/10 12:14:36;;;;;;;3.53;2.85;;;;;;;;;;5038071;28;20105;-73
2022/04/10 12:17:02;;;;;;;3.95;2.28;;;;;;;;;;5038412;28;20099;-75
2022/04/10 12:19:30;;;;;;;5.72;2.50;;;;;;;;;;5038984;28;20099;-75
2022/04/10 12:21:56;;;;;;;5.70;2.58;;;;;;;;;;5038541;28;20149;-74
2022/04/10 12:24:23;;;;;;;8.05;3.13;;;;;;;;;;5039982;28;20040;-74
2022/04/10 12:26:50;;;;;;;5.10;2.63;;;;;;;;;;5039625;28;20044;-74
2022/04/10 12:29:17;;;;;;;6.68;2.92;;;;;;;;;;5039829;28;20040;-74
2022/04/10 12:31:43;;;;;;;3.60;2.22;;;;;;;;;;5041147;28;20589;-74
2022/04/10 12:34:10;;;;;;;3.30;2.30;;;;;;;;;;5044150;28;20441;-73
2022/04/10 12:36:45;;;;;;;6.75;2.90;;;;;;;;;;5042848;28;20120;-73
2022/04/10 12:39:11;;;;;;;6.18;3.00;;;;;;;;;;5041892;28;20021;-72
2022/04/10 12:41:37;;;;;;;6.38;2.40;;;;;;;;;;5025137;28;20037;-73
2022/04/10 12:44:04;;;;;;;5.38;2.85;;;;;;;;;;5041340;28;20033;-75
2022/04/10 12:46:37;;;;;;;5.22;2.70;;;;;;;;;;5042127;28;20025;-73
2022/04/10 12:49:17;;;;;;;6.22;2.55;;;;;;;;;;5040247;28;20060;-75
2022/04/10 12:51:55;;;;;;;6.45;2.63;;;;;;;;;;5019578;28;20029;-75
2022/04/10 12:54:38;;;;;;;4.68;2.65;;;;;;;;;;5039007;28;20036;-75
2022/04/10 12:57:04;;;;;;;4.40;2.88;;;;;;;;;;5039013;28;20025;-75
2022/04/10 12:59:49;;;;;;;5.72;2.42;;;;;;;;;;5036879;28;20029;-74
2022/04/10 13:02:28;;;;;;;7.93;2.58;;;;;;;;;;5043243;28;20098;-75
2022/04/10 13:04:56;;;;;;;4.38;2.15;;;;;;;;;;5041076;28;20635;-76
2022/04/10 13:07:22;;;;;;;8.20;3.08;;;;;;;;;;5025718;28;20245;-75
2022/04/10 13:10:06;;;;;;;6.43;2.30;;;;;;;;;;5044090;28;20041;-76
2022/04/10 13:12:33;;;;;;;3.72;2.50;;;;;;;;;;5045268;28;20071;-75
2022/04/10 13:15:00;;;;;;;4.95;2.13;;;;;;;;;;5027770;28;20139;-75
2022/04/10 13:17:33;;;;;;;7.40;2.50;;;;;;;;;;5045323;28;20029;-74
2022/04/10 13:20:05;;;;;;;5.30;2.78;;;;;;;;;;5043766;28;20056;-75
2022/04/10 13:22:38;;;;;;;7.47;2.70;;;;;;;;;;5045008;28;20029;-74
2022/04/10 13:25:05;;;;;;;5.97;4.15;;;;;;;;;;5042839;28;20108;-75
2022/04/10 13:27:31;;;;;;;8.10;3.13;;;;;;;;;;5045751;28;20060;-75
2022/04/10 13:30:00;;;;;;;5.43;2.97;;;;;;;;;;5043370;28;20079;-75
2022/04/10 13:32:26;;;;;;;7.00;4.15;;;;;;;;;;5027536;28;20029;-75
2022/04/10 13:34:53;;;;;;;5.47;3.17;;;;;;;;;;5043107;28;20311;-74
2022/04/10 13:37:20;;;;;;;6.97;2.65;;;;;;;;;;5042108;28;20029;-73
2022/04/10 13:39:46;;;;;;;4.25;2.13;;;;;;;;;;5044497;28;20029;-74
2022/04/10 13:42:12;;;;;;;4.10;2.70;;;;;;;;;;5045025;28;20468;-75
2022/04/10 13:44:38;;;;;;;5.15;2.80;;;;;;;;;;5045376;28;20108;-74
2022/04/10 13:47:04;;;;;;;9.00;3.03;;;;;;;;;;5042192;28;20673;-75
2022/04/10 13:49:30;;;;;;;7.70;3.33;;;;;;;;;;5045254;28;20556;-75
2022/04/10 13:51:59;;;;;;;6.28;3.35;;;;;;;;;;5043986;28;20047;-75
2022/04/10 13:54:25;;;;;;;7.50;3.28;;;;;;;;;;5042674;28;20040;-75
2022/04/10 13:56:51;;;;;;;4.88;3.22;;;;;;;;;;5043250;28;20107;-74
2022/04/10 13:59:17;;;;;;;4.55;2.47;;;;;;;;;;5046369;28;20029;-75
2022/04/10 14:01:44;;;;;;;5.60;2.47;;;;;;;;;;5046928;28;20029;-75
2022/04/10 14:04:10;;;;;;;5.15;2.42;;;;;;;;;;5048167;28;20040;-75
2022/04/10 14:06:36;;;;;;;5.13;2.38;;;;;;;;;;5052321;28;20072;-75
2022/04/10 14:09:02;;;;;;;7.22;3.17;;;;;;;;;;5046382;28;20029;-76
2022/04/10 14:11:29;;;;;;;7.18;2.50;;;;;;;;;;5046535;28;20082;-75
2022/04/10 14:13:55;;;;;;;6.45;2.70;;;;;;;;;;5028246;28;20382;-75
2022/04/10 14:16:21;;;;;;;8.88;4.93;;;;;;;;;;5045238;28;20075;-74
2022/04/10 14:18:48;;;;;;;10.68;3.95;;;;;;;;;;5027143;28;20743;-74
2022/04/10 14:21:14;;;;;;;13.00;6.03;;;;;;;;;;5046103;28;20036;-74
2022/04/10 14:23:40;;;;;;;8.00;3.40;;;;;;;;;;5041515;28;20484;-74
2022/04/10 14:26:07;;;;;;;6.10;3.17;;;;;;;;;;5044608;28;20502;-74
2022/04/10 14:28:34;;;;;;;6.07;3.40;;;;;;;;;;5045093;28;20024;-74
2022/04/10 14:31:00;;;;;;;7.13;2.50;;;;;;;;;;5041876;28;20557;-73
2022/04/10 14:33:26;;;;;;;4.10;2.67;;;;;;;;;;5042432;28;20131;-75
2022/04/10 14:35:52;;;;;;;7.88;3.17;;;;;;;;;;5044017;28;20024;-74
2022/04/10 14:38:18;;;;;;;7.93;3.92;;;;;;;;;;5040904;28;20617;-75
2022/04/10 14:40:44;;;;;;;6.07;3.45;;;;;;;;;;5038488;28;20102;-75
2022/04/10 14:43:10;;;;;;;9.35;4.53;;;;;;;;;;5040715;28;20616;-76
2022/04/10 14:45:37;;;;;;;9.50;3.40;;;;;;;;;;5041630;28;20029;-76
2022/04/10 14:48:03;;;;;;;5.80;2.80;;;;;;;;;;5044785;28;20024;-75
2022/04/10 14:50:29;;;;;;;7.05;3.55;;;;;;;;;;5044669;28;20502;-76